createdAt,value
2024-02-01T00:00:44.834Z,72.81
2024-02-01T00:03:11.944Z,72.75
2024-02-01T00:05:39.264Z,72.19
2024-02-01T00:08:06.689Z,71.30
2024-02-01T00:10:33.700Z,71.10
2024-02-01T00:13:00.846Z,71.13
2024-02-01T00:15:28.386Z,70.70
2024-02-01T00:17:55.675Z,71.05
2024-02-01T00:20:22.751Z,70.54
2024-02-01T00:22:49.722Z,70.51
2024-02-01T00:25:16.757Z,71.12
2024-02-01T00:27:43.810Z,70.42
2024-02-01T00:30:11.238Z,70.55
2024-02-01T00:32:38.308Z,70.79
2024-02-01T00:35:05.961Z,70.56
2024-02-01T00:37:33.076Z,70.52
2024-02-01T00:40:01.749Z,71.28
2024-02-01T00:42:30.899Z,70.20
2024-02-01T00:44:57.900Z,70.49
2024-02-01T00:47:24.995Z,70.15
2024-02-01T00:49:52.076Z,69.90
2024-02-01T00:52:19.128Z,70.89
2024-02-01T00:54:46.369Z,71.70
2024-02-01T00:57:13.439Z,72.26
2024-02-01T00:59:40.668Z,73.08
2024-02-01T01:02:08.122Z,72.93
2024-02-01T01:04:35.271Z,71.63
2024-02-01T01:07:02.370Z,72.44
2024-02-01T01:09:29.479Z,72.87
2024-02-01T01:11:56.608Z,73.04
2024-02-01T01:14:26.528Z,72.69
2024-02-01T01:16:53.541Z,72.74
2024-02-01T01:19:20.549Z,72.54
2024-02-01T01:21:47.829Z,72.12
2024-02-01T01:24:14.863Z,72.15
2024-02-01T01:26:41.976Z,72.44
2024-02-01T01:29:09.048Z,72.27
2024-02-01T01:31:36.141Z,72.81
2024-02-01T01:34:03.272Z,72.82
2024-02-01T01:36:30.428Z,72.72
2024-02-01T01:38:57.450Z,73.21
2024-02-01T01:41:24.501Z,73.07
2024-02-01T01:43:51.575Z,73.19
2024-02-01T01:46:18.662Z,73.09
2024-02-01T01:48:45.962Z,73.38
2024-02-01T01:51:15.799Z,72.81
2024-02-01T01:53:44.957Z,72.90
2024-02-01T01:56:13.864Z,73.36
2024-02-01T01:58:42.108Z,73.01
2024-02-01T02:01:10.245Z,73.09
2024-02-01T02:03:41.939Z,72.79
2024-02-01T02:06:09.567Z,72.80
2024-02-01T02:08:37.000Z,72.73
2024-02-01T02:11:05.545Z,72.80
2024-02-01T02:13:33.081Z,72.81
2024-02-01T02:16:00.131Z,72.90
2024-02-01T02:18:27.365Z,72.97
2024-02-01T02:20:55.509Z,73.15
2024-02-01T02:23:22.658Z,73.45
2024-02-01T02:25:50.316Z,73.26
2024-02-01T02:28:17.448Z,73.63
2024-02-01T02:30:44.695Z,72.91
2024-02-01T02:33:11.897Z,73.28
2024-02-01T02:35:39.258Z,72.21
2024-02-01T02:38:06.363Z,72.20
2024-02-01T02:40:33.855Z,71.59
2024-02-01T02:43:02.220Z,71.76
2024-02-01T02:45:29.421Z,71.75
2024-02-01T02:47:59.093Z,72.04
2024-02-01T02:50:26.406Z,72.28
2024-02-01T02:52:55.167Z,72.22
2024-02-01T02:55:22.474Z,72.33
2024-02-01T02:57:49.866Z,71.34
2024-02-01T03:00:20.564Z,72.24
2024-02-01T03:02:49.352Z,72.15
2024-02-01T03:05:17.958Z,72.67
2024-02-01T03:07:45.519Z,72.75
2024-02-01T03:10:13.811Z,73.17
2024-02-01T03:12:41.660Z,73.36
2024-02-01T03:15:10.510Z,73.28
2024-02-01T03:17:42.654Z,74.19
2024-02-01T03:20:24.003Z,74.53
2024-02-01T03:22:58.258Z,74.22
2024-02-01T03:25:29.791Z,74.15
2024-02-01T03:28:02.329Z,73.83
2024-02-01T03:30:30.488Z,73.76
2024-02-01T03:32:58.889Z,73.42
2024-02-01T03:35:25.936Z,75.05
2024-02-01T03:37:52.957Z,75.19
2024-02-01T03:40:21.037Z,76.31
2024-02-01T03:42:48.622Z,76.08
2024-02-01T03:45:16.187Z,77.29
2024-02-01T03:47:46.652Z,76.63
2024-02-01T03:50:14.431Z,76.91
2024-02-01T03:52:47.414Z,76.77
2024-02-01T03:55:21.073Z,77.13
2024-02-01T03:57:48.995Z,76.41
2024-02-01T04:00:27.001Z,76.31
2024-02-01T04:03:05.048Z,76.18
2024-02-01T04:05:39.663Z,76.49
2024-02-01T04:08:10.159Z,76.39
2024-02-01T04:10:38.509Z,75.87
2024-02-01T04:13:06.820Z,76.42
2024-02-01T04:15:37.014Z,76.02
2024-02-01T04:18:11.734Z,76.70
2024-02-01T04:20:40.521Z,76.69
2024-02-01T04:23:09.075Z,76.42
2024-02-01T04:25:36.252Z,77.13
2024-02-01T04:28:10.208Z,76.34
2024-02-01T04:30:38.643Z,76.91
2024-02-01T04:33:06.001Z,76.46
2024-02-01T04:35:33.314Z,76.46
2024-02-01T04:38:00.945Z,75.98
2024-02-01T04:40:28.605Z,75.70
2024-02-01T04:42:57.692Z,76.21
2024-02-01T04:45:24.971Z,76.01
2024-02-01T04:47:52.120Z,75.88
2024-02-01T04:50:19.480Z,75.85
2024-02-01T04:52:46.730Z,76.02
2024-02-01T04:55:13.994Z,75.76
2024-02-01T04:57:42.159Z,75.70
2024-02-01T05:00:18.470Z,75.70
2024-02-01T05:02:49.116Z,75.70
2024-02-01T05:05:18.273Z,75.22
2024-02-01T05:07:45.406Z,75.00
2024-02-01T05:10:14.295Z,74.92
2024-02-01T05:12:42.631Z,74.24
2024-02-01T05:15:11.148Z,74.34
2024-02-01T05:17:38.976Z,74.12
2024-02-01T05:20:10.309Z,74.05
2024-02-01T05:22:37.622Z,74.31
2024-02-01T05:25:17.473Z,74.80
2024-02-01T05:27:52.412Z,76.50
2024-02-01T05:30:22.761Z,75.05
2024-02-01T05:32:55.002Z,76.14
2024-02-01T05:35:35.269Z,75.75
2024-02-01T05:38:02.992Z,75.65
2024-02-01T05:40:31.054Z,76.60
2024-02-01T05:42:58.645Z,75.58
2024-02-01T05:45:30.630Z,75.75
2024-02-01T05:47:59.501Z,75.25
2024-02-01T05:50:26.999Z,75.26
2024-02-01T05:52:54.104Z,76.05
2024-02-01T05:55:21.449Z,75.59
2024-02-01T05:57:48.492Z,75.81
2024-02-01T06:00:21.053Z,76.11
2024-02-01T06:02:48.714Z,75.87
2024-02-01T06:05:15.923Z,75.50
2024-02-01T06:07:43.454Z,75.43
2024-02-01T06:10:10.519Z,75.09
2024-02-01T06:12:39.568Z,74.66
2024-02-01T06:15:08.591Z,75.62
2024-02-01T06:17:36.464Z,74.72
2024-02-01T06:20:04.265Z,73.40
2024-02-01T06:22:32.460Z,73.40
2024-02-01T06:24:59.763Z,72.93
2024-02-01T06:27:26.972Z,71.33
2024-02-01T06:29:54.030Z,72.00
2024-02-01T06:32:22.381Z,71.12
2024-02-01T06:34:57.329Z,70.96
2024-02-01T06:37:24.660Z,71.39
2024-02-01T06:40:10.805Z,72.22
2024-02-01T06:43:10.598Z,71.91
2024-02-01T06:45:59.451Z,71.39
2024-02-01T06:48:42.501Z,71.71
2024-02-01T06:51:23.544Z,71.05
2024-02-01T06:54:07.254Z,70.18
2024-02-01T06:56:52.694Z,70.30
2024-02-01T06:59:35.447Z,70.75
2024-02-01T07:02:28.987Z,71.74
2024-02-01T07:05:05.343Z,72.15
2024-02-01T07:07:43.165Z,71.14
2024-02-01T07:10:22.214Z,72.30
2024-02-01T07:13:08.090Z,70.63
2024-02-01T07:15:35.274Z,70.96
2024-02-01T07:18:10.836Z,70.86
2024-02-01T07:20:48.222Z,70.85
2024-02-01T07:23:23.071Z,71.08
2024-02-01T07:26:07.750Z,70.59
2024-02-01T07:28:53.341Z,71.44
2024-02-01T07:31:38.901Z,70.93
2024-02-01T07:34:24.603Z,70.89
2024-02-01T07:37:10.029Z,68.71
2024-02-01T07:39:55.561Z,68.59
2024-02-01T07:42:41.096Z,67.23
2024-02-01T07:45:26.981Z,67.24
2024-02-01T07:48:13.145Z,66.95
2024-02-01T07:50:59.183Z,65.04
2024-02-01T07:53:44.713Z,65.64
2024-02-01T07:56:30.755Z,66.71
2024-02-01T07:59:08.689Z,64.77
2024-02-01T08:01:49.617Z,65.46
2024-02-01T08:04:19.169Z,63.68
2024-02-01T08:07:05.210Z,62.91
2024-02-01T08:09:32.435Z,63.25
2024-02-01T08:11:59.592Z,63.08
2024-02-01T08:14:26.665Z,59.50
2024-02-01T08:16:53.665Z,60.61
2024-02-01T08:21:52.681Z,58.63
2024-02-01T08:24:24.593Z,59.95
2024-02-01T08:26:52.541Z,59.93
2024-02-01T08:29:25.872Z,60.50
2024-02-01T08:31:55.110Z,60.68
2024-02-01T08:34:22.357Z,59.15
2024-02-01T08:36:49.431Z,60.49
2024-02-01T08:39:17.460Z,60.28
2024-02-01T08:41:45.471Z,60.84
2024-02-01T08:44:12.541Z,61.15
2024-02-01T08:46:39.808Z,61.29
2024-02-01T08:49:07.616Z,60.13
2024-02-01T08:51:37.241Z,60.45
2024-02-01T08:54:04.450Z,59.35
2024-02-01T08:56:38.216Z,58.87
2024-02-01T08:59:06.885Z,59.07
2024-02-01T09:01:35.325Z,58.03
2024-02-01T09:04:15.779Z,58.19
2024-02-01T09:06:56.229Z,58.04
2024-02-01T09:09:30.530Z,56.98
2024-02-01T09:11:58.176Z,57.08
2024-02-01T09:14:25.505Z,56.14
2024-02-01T09:16:54.790Z,55.89
2024-02-01T09:19:22.347Z,56.03
2024-02-01T09:21:49.636Z,56.15
2024-02-01T09:24:19.221Z,56.27
2024-02-01T09:26:47.867Z,56.02
2024-02-01T09:29:15.163Z,54.21
2024-02-01T09:31:42.207Z,53.57
2024-02-01T09:34:16.160Z,52.67
2024-02-01T09:36:44.429Z,50.80
2024-02-01T09:39:13.100Z,50.97
2024-02-01T09:41:41.504Z,50.45
2024-02-01T09:44:10.666Z,51.48
2024-02-01T09:46:38.116Z,49.86
2024-02-01T09:49:12.765Z,49.00
2024-02-01T09:51:48.368Z,47.85
2024-02-01T09:54:15.867Z,46.58
2024-02-01T09:56:44.152Z,47.34
2024-02-01T09:59:13.641Z,46.95
2024-02-01T10:01:40.951Z,46.61
2024-02-01T10:04:14.104Z,46.52
2024-02-01T10:06:41.451Z,45.13
2024-02-01T10:09:23.782Z,45.58
2024-02-01T10:11:53.112Z,46.15
2024-02-01T10:14:21.089Z,45.30
2024-02-01T10:16:48.209Z,44.71
2024-02-01T10:19:16.248Z,45.16
2024-02-01T10:21:56.193Z,44.23
2024-02-01T10:24:26.467Z,44.51
2024-02-01T10:27:06.245Z,43.50
2024-02-01T10:29:33.899Z,42.67
2024-02-01T10:32:03.220Z,43.55
2024-02-01T10:34:31.203Z,42.83
2024-02-01T10:37:02.323Z,42.15
2024-02-01T10:39:35.247Z,41.08
2024-02-01T10:42:10.183Z,40.61
2024-02-01T10:44:42.369Z,41.34
2024-02-01T10:47:14.856Z,40.40
2024-02-01T10:49:54.006Z,40.06
2024-02-01T10:52:22.881Z,39.32
2024-02-01T10:54:53.342Z,39.72
2024-02-01T10:57:21.429Z,40.58
2024-02-01T10:59:51.694Z,40.66
2024-02-01T11:02:20.766Z,39.63
2024-02-01T11:04:49.836Z,40.59
2024-02-01T11:07:36.186Z,39.44
2024-02-01T11:10:14.371Z,39.76
2024-02-01T11:12:41.807Z,38.99
2024-02-01T11:15:18.112Z,39.15
2024-02-01T11:17:45.541Z,38.59
2024-02-01T11:20:13.928Z,38.88
2024-02-01T11:22:42.962Z,38.53
2024-02-01T11:25:11.876Z,37.83
2024-02-01T11:27:39.112Z,36.70
2024-02-01T11:30:23.363Z,36.32
2024-02-01T11:32:52.021Z,33.60
2024-02-01T11:35:21.375Z,35.29
2024-02-01T11:37:55.690Z,35.46
2024-02-01T11:40:22.722Z,34.29
2024-02-01T11:42:51.499Z,34.92
2024-02-01T11:45:19.001Z,33.21
2024-02-01T11:47:46.451Z,33.50
2024-02-01T11:50:15.240Z,33.35
2024-02-01T11:53:09.376Z,32.78
2024-02-01T11:55:36.993Z,32.96
2024-02-01T11:58:13.330Z,32.88
2024-02-01T12:00:51.301Z,30.76
2024-02-01T12:03:33.388Z,31.91
2024-02-01T12:06:01.335Z,31.31
2024-02-01T12:08:33.337Z,31.15
2024-02-01T12:11:02.259Z,31.28
2024-02-01T12:13:29.343Z,30.51
2024-02-01T12:15:59.482Z,31.02
2024-02-01T12:18:26.876Z,31.26
2024-02-01T12:20:54.435Z,31.30
2024-02-01T12:23:21.551Z,31.11
2024-02-01T12:25:49.182Z,30.11
2024-02-01T12:28:16.394Z,29.18
2024-02-01T12:30:45.971Z,29.82
2024-02-01T12:33:14.521Z,30.12
2024-02-01T12:35:46.112Z,29.41
2024-02-01T12:38:16.306Z,29.41
2024-02-01T12:40:46.441Z,28.81
2024-02-01T12:43:14.405Z,28.98
2024-02-01T12:45:48.270Z,28.65
2024-02-01T12:48:17.387Z,27.92
2024-02-01T12:50:45.426Z,28.59
2024-02-01T12:53:14.093Z,28.57
2024-02-01T12:55:41.376Z,28.29
2024-02-01T12:58:08.416Z,28.68
2024-02-01T13:00:35.553Z,28.99
2024-02-01T13:03:02.869Z,28.54
2024-02-01T13:05:30.030Z,28.12
2024-02-01T13:07:57.397Z,29.01
2024-02-01T13:10:24.482Z,29.17
2024-02-01T13:12:59.302Z,29.51
2024-02-01T13:15:27.429Z,28.59
2024-02-01T13:17:56.250Z,29.09
2024-02-01T13:20:24.473Z,29.00
2024-02-01T13:22:52.767Z,29.38
2024-02-01T13:25:21.459Z,29.09
2024-02-01T13:27:50.900Z,29.34
2024-02-01T13:30:19.788Z,28.85
2024-02-01T13:32:49.893Z,28.86
2024-02-01T13:35:17.257Z,29.18
2024-02-01T13:37:47.736Z,30.08
2024-02-01T13:40:18.769Z,31.11
2024-02-01T13:42:47.031Z,31.00
2024-02-01T13:45:14.967Z,31.16
2024-02-01T13:47:52.775Z,31.47
2024-02-01T13:50:26.023Z,31.04
2024-02-01T13:52:58.338Z,31.77
2024-02-01T13:55:26.668Z,31.38
2024-02-01T13:57:54.564Z,31.22
2024-02-01T14:00:22.051Z,31.90
2024-02-01T14:02:52.028Z,31.31
2024-02-01T14:05:23.860Z,31.63
2024-02-01T14:07:53.482Z,31.90
2024-02-01T14:10:21.999Z,32.58
2024-02-01T14:12:49.219Z,42.62
2024-02-01T14:15:16.623Z,33.17
2024-02-01T14:17:43.972Z,33.38
2024-02-01T14:20:15.159Z,31.87
2024-02-01T14:22:43.449Z,31.70
2024-02-01T14:25:14.646Z,32.17
2024-02-01T14:27:42.324Z,31.76
2024-02-01T14:30:17.915Z,32.28
2024-02-01T14:32:47.284Z,32.92
2024-02-01T14:35:17.744Z,34.44
2024-02-01T14:37:45.418Z,35.51
2024-02-01T14:40:14.324Z,36.22
2024-02-01T14:42:43.156Z,36.64
2024-02-01T14:45:10.969Z,38.06
2024-02-01T14:47:38.712Z,37.95
2024-02-01T14:50:06.672Z,38.49
2024-02-01T14:52:33.993Z,38.32
2024-02-01T14:55:01.155Z,38.38
2024-02-01T15:04:14.769Z,40.89
2024-02-01T15:06:44.318Z,40.90
2024-02-01T15:09:12.457Z,41.06
2024-02-01T15:11:39.647Z,41.37
2024-02-01T15:14:06.693Z,42.40
2024-02-01T15:16:34.465Z,42.10
2024-02-01T15:19:05.040Z,42.42
2024-02-01T15:21:32.248Z,42.91
2024-02-01T15:24:02.063Z,44.14
2024-02-01T15:26:29.498Z,45.55
2024-02-01T15:28:57.503Z,44.92
2024-02-01T15:31:24.679Z,45.52
2024-02-01T15:33:54.127Z,47.31
2024-02-01T15:36:21.901Z,47.37
2024-02-01T15:38:50.178Z,46.98
2024-02-01T15:41:19.260Z,47.69
2024-02-01T15:43:46.571Z,47.76
2024-02-01T15:46:13.715Z,47.12
2024-02-01T15:48:44.039Z,47.68
2024-02-01T15:51:16.325Z,47.75
